createdAt,value
2023-05-01T00:00:07.380Z,76.32
2023-05-01T00:02:35.040Z,76.34
2023-05-01T00:05:02.744Z,76.33
2023-05-01T00:07:31.177Z,75.90
2023-05-01T00:09:58.945Z,76.15
2023-05-01T00:12:26.411Z,76.58
2023-05-01T00:14:52.990Z,76.35
2023-05-01T00:17:19.563Z,76.89
2023-05-01T00:19:46.230Z,76.69
2023-05-01T00:22:13.833Z,76.28
2023-05-01T00:24:41.654Z,77.03
2023-05-01T00:27:10.029Z,76.14
2023-05-01T00:29:38.723Z,76.18
2023-05-01T00:32:08.009Z,77.24
2023-05-01T00:34:35.823Z,76.99
2023-05-01T00:37:04.406Z,76.32
2023-05-01T00:39:32.009Z,76.27
2023-05-01T00:41:59.589Z,76.81
2023-05-01T00:44:27.200Z,77.11
2023-05-01T00:46:54.767Z,76.95
2023-05-01T00:49:21.364Z,77.00
2023-05-01T00:51:47.990Z,76.29
2023-05-01T00:54:15.585Z,77.43
2023-05-01T00:56:43.157Z,77.06
2023-05-01T00:59:10.735Z,77.20
2023-05-01T01:01:39.449Z,76.76
2023-05-01T01:04:06.953Z,77.39
2023-05-01T01:06:34.625Z,77.44
2023-05-01T01:09:02.100Z,77.64
2023-05-01T01:11:29.691Z,77.69
2023-05-01T01:13:58.260Z,77.49
2023-05-01T01:16:25.868Z,76.79
2023-05-01T01:18:53.465Z,77.80
2023-05-01T01:21:21.054Z,76.79
2023-05-01T01:23:48.668Z,77.31
2023-05-01T01:26:17.365Z,77.63
2023-05-01T01:28:47.353Z,77.00
2023-05-01T01:31:16.782Z,77.56
2023-05-01T01:44:32.673Z,77.17
2023-05-01T01:47:00.270Z,77.66
2023-05-01T01:49:32.685Z,77.43
2023-05-01T01:54:46.578Z,77.50
2023-05-01T01:57:15.750Z,77.94
2023-05-01T01:59:43.328Z,77.71
2023-05-01T02:02:10.908Z,77.71
2023-05-01T02:04:38.553Z,77.57
2023-05-01T02:12:38.649Z,78.23
2023-05-01T02:15:12.510Z,77.94
2023-05-01T02:17:41.705Z,77.46
2023-05-01T02:20:09.281Z,77.63
2023-05-01T02:22:37.834Z,76.98
2023-05-01T02:25:08.458Z,77.58
2023-05-01T02:27:36.049Z,77.75
2023-05-01T02:30:09.655Z,77.22
2023-05-01T02:32:40.125Z,77.98
2023-05-01T02:35:08.743Z,77.42
2023-05-01T02:37:54.545Z,77.30
2023-05-01T02:40:31.368Z,78.24
2023-05-01T02:42:59.758Z,78.33
2023-05-01T02:45:28.388Z,78.73
2023-05-01T02:47:57.029Z,78.52
2023-05-01T02:50:25.556Z,78.06
2023-05-01T02:52:54.173Z,77.65
2023-05-01T02:55:23.763Z,78.29
2023-05-01T02:57:50.383Z,78.22
2023-05-01T03:00:17.968Z,77.63
2023-05-01T03:02:45.594Z,78.01
2023-05-01T03:05:16.131Z,77.54
2023-05-01T03:07:43.737Z,77.16
2023-05-01T03:10:13.337Z,77.31
2023-05-01T03:12:43.871Z,77.10
2023-05-01T03:15:10.511Z,77.44
2023-05-01T03:17:38.153Z,77.41
2023-05-01T03:20:05.701Z,77.33
2023-05-01T03:22:33.334Z,77.38
2023-05-01T03:25:00.946Z,77.05
2023-05-01T03:27:29.510Z,76.41
2023-05-01T03:29:57.277Z,77.12
2023-05-01T03:32:24.789Z,76.51
2023-05-01T03:34:52.312Z,75.84
2023-05-01T03:37:19.883Z,76.75
2023-05-01T03:39:47.507Z,77.07
2023-05-01T03:42:15.058Z,76.66
2023-05-01T03:44:42.684Z,76.32
2023-05-01T03:47:10.261Z,76.78
2023-05-01T03:49:36.849Z,76.67
2023-05-01T03:52:04.433Z,77.36
2023-05-01T03:54:33.026Z,77.35
2023-05-01T03:57:00.624Z,76.74
2023-05-01T03:59:28.220Z,76.61
2023-05-01T04:01:55.865Z,77.32
2023-05-01T04:04:24.505Z,76.64
2023-05-01T04:06:52.054Z,78.01
2023-05-01T04:09:19.604Z,77.72
2023-05-01T04:11:47.380Z,78.28
2023-05-01T04:14:14.755Z,78.75
2023-05-01T04:16:42.418Z,78.74
2023-05-01T04:19:09.964Z,77.77
2023-05-01T04:21:37.540Z,78.60
2023-05-01T04:24:05.133Z,78.18
2023-05-01T04:26:31.745Z,78.46
2023-05-01T04:28:58.316Z,77.62
2023-05-01T04:31:26.935Z,76.89
2023-05-01T04:33:55.539Z,77.31
2023-05-01T04:36:23.115Z,76.72
2023-05-01T04:38:50.780Z,77.35
2023-05-01T04:41:18.344Z,77.69
2023-05-01T04:43:45.932Z,78.38
2023-05-01T04:46:14.508Z,77.76
2023-05-01T04:48:42.074Z,77.08
2023-05-01T04:51:08.697Z,77.27
2023-05-01T04:53:36.272Z,77.70
2023-05-01T04:56:02.865Z,77.78
2023-05-01T04:58:29.454Z,78.61
2023-05-01T05:00:57.054Z,77.56
2023-05-01T05:03:27.042Z,77.94
2023-05-01T05:05:55.286Z,78.15
2023-05-01T05:08:22.991Z,77.64
2023-05-01T05:10:53.464Z,77.93
2023-05-01T05:13:23.893Z,78.26
2023-05-01T05:15:51.646Z,78.59
2023-05-01T05:18:21.661Z,78.30
2023-05-01T05:20:49.865Z,78.03
2023-05-01T05:23:17.661Z,77.99
2023-05-01T05:25:46.086Z,77.56
2023-05-01T05:28:13.624Z,77.40
2023-05-01T05:30:41.224Z,78.02
2023-05-01T05:33:09.843Z,77.99
2023-05-01T05:35:37.413Z,77.92
2023-05-01T05:38:07.984Z,77.71
2023-05-01T05:40:35.643Z,77.77
2023-05-01T05:43:05.215Z,77.82
2023-05-01T05:45:32.801Z,78.17
2023-05-01T05:48:00.486Z,78.06
2023-05-01T05:50:31.312Z,77.15
2023-05-01T05:52:59.621Z,76.26
2023-05-01T05:55:27.178Z,76.50
2023-05-01T05:57:54.775Z,75.85
2023-05-01T06:00:21.392Z,76.56
2023-05-01T06:02:49.040Z,75.89
2023-05-01T06:05:21.003Z,76.89
2023-05-01T06:07:49.183Z,77.38
2023-05-01T06:10:16.754Z,76.79
2023-05-01T06:12:46.431Z,77.22
2023-05-01T06:15:21.821Z,76.04
2023-05-01T06:17:48.675Z,75.06
2023-05-01T06:20:17.184Z,75.29
2023-05-01T06:22:44.790Z,75.06
2023-05-01T06:25:12.368Z,74.93
2023-05-01T06:27:39.950Z,75.57
2023-05-01T06:30:08.757Z,75.19
2023-05-01T06:32:36.165Z,74.47
2023-05-01T06:35:03.758Z,73.95
2023-05-01T06:37:31.343Z,74.12
2023-05-01T06:39:59.095Z,74.15
2023-05-01T06:42:26.527Z,74.63
2023-05-01T06:44:55.095Z,75.23
2023-05-01T06:47:24.323Z,74.68
2023-05-01T06:49:51.368Z,74.44
2023-05-01T06:52:18.952Z,74.97
2023-05-01T06:54:46.523Z,74.82
2023-05-01T06:57:14.124Z,74.71
2023-05-01T06:59:41.743Z,74.20
2023-05-01T07:02:09.350Z,75.13
2023-05-01T07:04:37.909Z,75.47
2023-05-01T07:07:15.508Z,75.73
2023-05-01T07:09:50.192Z,75.65
2023-05-01T07:12:19.674Z,76.07
2023-05-01T07:14:46.296Z,75.72
2023-05-01T07:17:13.970Z,76.78
2023-05-01T07:19:48.965Z,76.33
2023-05-01T07:24:59.769Z,77.54
2023-05-01T07:27:34.085Z,77.35
2023-05-01T07:30:15.971Z,77.60
2023-05-01T07:35:24.457Z,76.46
2023-05-01T07:37:53.291Z,75.40
2023-05-01T07:40:20.632Z,73.15
2023-05-01T07:42:49.241Z,70.16
2023-05-01T07:45:16.859Z,72.20
2023-05-01T07:47:44.478Z,72.70
2023-05-01T07:50:12.015Z,71.54
2023-05-01T07:52:38.629Z,70.54
2023-05-01T07:55:06.228Z,72.12
2023-05-01T07:57:33.809Z,73.42
2023-05-01T08:00:01.422Z,74.63
2023-05-01T08:02:30.750Z,73.57
2023-05-01T08:05:02.331Z,75.04
2023-05-01T08:07:29.196Z,74.54
2023-05-01T08:09:59.807Z,74.19
2023-05-01T08:12:27.397Z,74.97
2023-05-01T08:14:54.981Z,74.02
2023-05-01T08:17:22.610Z,73.42
2023-05-01T08:19:50.164Z,73.20
2023-05-01T08:22:17.744Z,73.93
2023-05-01T08:24:44.336Z,73.83
2023-05-01T08:27:11.930Z,73.13
2023-05-01T08:29:39.506Z,73.36
2023-05-01T08:32:08.827Z,73.42
2023-05-01T08:34:35.708Z,74.06
2023-05-01T08:37:03.334Z,73.32
2023-05-01T08:39:34.345Z,73.89
2023-05-01T08:42:02.515Z,73.49
2023-05-01T08:44:31.100Z,71.61
2023-05-01T08:46:59.790Z,72.12
2023-05-01T08:49:27.293Z,72.78
2023-05-01T08:51:54.938Z,72.57
2023-05-01T08:54:24.148Z,74.15
2023-05-01T08:56:54.892Z,73.26
2023-05-01T09:02:08.313Z,72.54
2023-05-01T09:04:36.989Z,72.73
2023-05-01T09:07:05.528Z,70.97
2023-05-01T09:09:34.144Z,71.57
2023-05-01T09:12:01.737Z,69.82
2023-05-01T09:14:38.117Z,70.15
2023-05-01T09:17:06.958Z,70.16
2023-05-01T09:19:36.447Z,70.25
2023-05-01T09:22:05.383Z,69.46
2023-05-01T09:24:32.985Z,70.35
2023-05-01T09:27:03.462Z,68.95
2023-05-01T09:29:38.916Z,68.51
2023-05-01T09:32:12.125Z,68.37
2023-05-01T09:34:43.255Z,68.20
2023-05-01T09:37:11.859Z,68.51
2023-05-01T09:39:39.495Z,68.05
2023-05-01T09:42:08.364Z,67.93
2023-05-01T09:44:36.639Z,68.00
2023-05-01T09:47:04.220Z,68.55
2023-05-01T09:49:31.927Z,67.44
2023-05-01T09:52:00.550Z,68.44
2023-05-01T09:54:28.143Z,67.22
2023-05-01T09:56:54.717Z,67.23
2023-05-01T09:59:22.349Z,67.40
2023-05-01T10:01:51.059Z,67.87
2023-05-01T10:04:18.547Z,65.38
2023-05-01T10:06:46.278Z,65.36
2023-05-01T10:09:12.799Z,65.61
2023-05-01T10:11:40.281Z,64.35
2023-05-01T10:14:07.888Z,64.04
2023-05-01T10:16:35.513Z,63.40
2023-05-01T10:19:04.458Z,64.53
2023-05-01T10:21:31.658Z,64.42
2023-05-01T10:23:59.243Z,63.77
2023-05-01T10:26:25.848Z,63.16
2023-05-01T10:28:55.171Z,60.98
2023-05-01T10:31:22.087Z,60.43
2023-05-01T10:33:49.070Z,58.52
2023-05-01T10:36:15.592Z,59.10
2023-05-01T10:38:42.085Z,60.58
2023-05-01T10:41:09.548Z,60.69
2023-05-01T10:43:36.433Z,60.98
2023-05-01T10:46:02.941Z,61.20
2023-05-01T10:48:29.509Z,60.96
2023-05-01T10:50:56.001Z,61.40
2023-05-01T10:53:23.343Z,62.59
2023-05-01T10:55:49.815Z,60.29
2023-05-01T10:58:17.542Z,61.01
2023-05-01T11:00:45.204Z,60.54
2023-05-01T11:03:12.774Z,60.50
2023-05-01T11:05:40.293Z,60.84
2023-05-01T11:08:06.815Z,61.35
2023-05-01T11:10:33.482Z,61.59
2023-05-01T11:13:01.095Z,61.69
2023-05-01T11:15:27.960Z,63.08
2023-05-01T11:17:55.296Z,63.02
2023-05-01T11:20:22.851Z,62.80
2023-05-01T11:22:49.437Z,62.33
2023-05-01T11:25:15.934Z,62.72
2023-05-01T11:27:42.604Z,60.30
2023-05-01T11:30:10.207Z,61.81
2023-05-01T11:32:37.860Z,61.29
2023-05-01T11:35:05.397Z,58.65
2023-05-01T11:37:32.986Z,59.22
2023-05-01T11:39:59.623Z,59.49
2023-05-01T11:42:26.272Z,59.27
2023-05-01T11:44:53.921Z,58.79
2023-05-01T11:47:20.933Z,58.94
2023-05-01T11:49:47.414Z,60.10
2023-05-01T11:52:13.878Z,61.18
2023-05-01T11:54:40.335Z,59.58
2023-05-01T11:57:06.797Z,59.84
2023-05-01T11:59:34.350Z,60.35
2023-05-01T12:02:02.009Z,59.14
2023-05-01T12:04:32.305Z,60.29
2023-05-01T12:07:00.180Z,62.00
2023-05-01T12:09:27.814Z,63.35
2023-05-01T12:11:56.402Z,64.67
2023-05-01T12:14:22.994Z,65.15
2023-05-01T12:16:49.683Z,64.84
2023-05-01T12:19:16.194Z,64.61
2023-05-01T12:21:42.662Z,64.34
2023-05-01T12:24:09.066Z,64.56
2023-05-01T12:26:35.519Z,65.59
2023-05-01T12:29:02.001Z,65.62
2023-05-01T12:31:28.646Z,64.01
2023-05-01T12:33:55.769Z,64.68
2023-05-01T12:36:22.488Z,62.99
2023-05-01T12:38:50.100Z,62.83
2023-05-01T12:41:16.629Z,62.16
2023-05-01T12:43:44.426Z,63.54
2023-05-01T12:46:11.967Z,62.92
2023-05-01T12:48:38.851Z,64.51
2023-05-01T12:51:05.501Z,64.17
2023-05-01T12:53:32.742Z,65.06
2023-05-01T12:55:59.427Z,64.70
2023-05-01T12:58:31.141Z,64.97
2023-05-01T13:00:59.662Z,64.56
2023-05-01T13:03:27.327Z,64.84
2023-05-01T13:05:54.830Z,66.53
2023-05-01T13:08:21.276Z,64.77
2023-05-01T13:10:47.725Z,63.10
2023-05-01T13:13:14.873Z,61.90
2023-05-01T13:18:11.057Z,62.68
2023-05-01T13:20:38.588Z,61.21
2023-05-01T13:23:05.031Z,62.38
2023-05-01T13:25:31.789Z,60.98
2023-05-01T13:27:58.633Z,61.81
2023-05-01T13:30:25.084Z,60.44
2023-05-01T13:32:51.577Z,59.20
2023-05-01T13:35:19.121Z,60.78
2023-05-01T13:37:45.867Z,59.85
2023-05-01T13:40:12.435Z,60.60
2023-05-01T13:42:39.897Z,58.79
2023-05-01T13:45:06.331Z,63.58
2023-05-01T13:47:32.795Z,65.69
2023-05-01T13:49:59.476Z,64.53
2023-05-01T13:52:27.395Z,59.15
2023-05-01T13:54:56.827Z,58.11
2023-05-01T13:57:24.004Z,59.40
2023-05-01T13:59:50.912Z,58.12
2023-05-01T14:02:17.434Z,56.18
2023-05-01T14:04:43.866Z,59.24
2023-05-01T14:07:10.443Z,63.54
2023-05-01T14:09:36.948Z,67.17
2023-05-01T14:12:03.665Z,64.56
2023-05-01T14:14:33.808Z,63.73
2023-05-01T14:17:01.025Z,64.02
2023-05-01T14:19:28.609Z,63.89
2023-05-01T14:21:55.543Z,62.26
2023-05-01T14:24:22.808Z,61.98
2023-05-01T14:26:49.428Z,61.84
2023-05-01T14:29:16.217Z,60.71
2023-05-01T14:31:42.941Z,61.08
2023-05-01T14:34:09.579Z,60.08
2023-05-01T14:36:37.103Z,60.60
2023-05-01T14:39:04.883Z,60.32
2023-05-01T14:41:31.548Z,58.63
2023-05-01T14:43:58.265Z,58.93
2023-05-01T14:46:25.087Z,58.92
2023-05-01T14:48:52.673Z,58.29
2023-05-01T14:51:20.272Z,60.33
2023-05-01T14:53:47.008Z,59.78
2023-05-01T14:56:13.613Z,60.46
2023-05-01T14:58:40.106Z,60.39
2023-05-01T15:01:06.593Z,60.11
2023-05-01T15:03:33.098Z,59.08
2023-05-01T15:06:00.191Z,59.08
2023-05-01T15:08:27.705Z,59.60
2023-05-01T15:10:54.354Z,58.91
2023-05-01T15:13:21.952Z,57.66
2023-05-01T15:15:48.445Z,58.73
2023-05-01T15:18:15.177Z,59.39
2023-05-01T15:20:42.732Z,58.75
2023-05-01T15:23:09.325Z,59.68
2023-05-01T15:25:35.777Z,59.49
2023-05-01T15:28:02.495Z,59.07
2023-05-01T15:30:29.257Z,59.61
2023-05-01T15:32:55.781Z,58.94
2023-05-01T15:35:22.425Z,59.23
2023-05-01T15:37:48.825Z,58.74
2023-05-01T15:40:15.257Z,58.28
2023-05-01T15:42:41.667Z,59.31
2023-05-01T15:45:08.120Z,58.64
2023-05-01T15:47:34.575Z,59.54
2023-05-01T15:50:01.328Z,59.81
2023-05-01T15:52:28.023Z,59.28
2023-05-01T15:54:54.450Z,61.65
2023-05-01T15:57:20.840Z,62.26
2023-05-01T15:59:47.259Z,63.06
2023-05-01T16:02:13.706Z,63.72
2023-05-01T16:04:40.145Z,63.37
2023-05-01T16:07:06.534Z,64.00
2023-05-01T16:09:32.947Z,64.35
2023-05-01T16:11:59.378Z,63.64
2023-05-01T16:14:25.817Z,63.96
2023-05-01T16:16:52.260Z,63.95
2023-05-01T16:19:18.877Z,63.50
2023-05-01T16:21:45.525Z,64.16
2023-05-01T16:24:11.974Z,64.45
2023-05-01T16:26:38.393Z,64.83
2023-05-01T16:29:04.789Z,64.83
2023-05-01T16:31:31.388Z,64.40
2023-05-01T16:33:57.877Z,63.74
2023-05-01T16:36:26.081Z,63.32
2023-05-01T16:38:53.654Z,64.30
2023-05-01T16:41:20.243Z,63.89
2023-05-01T16:43:46.857Z,65.05
2023-05-01T16:46:14.449Z,64.43
2023-05-01T16:48:40.889Z,64.82
2023-05-01T16:51:08.610Z,64.52
2023-05-01T16:53:37.216Z,66.14
2023-05-01T16:56:04.804Z,66.89
2023-05-01T16:58:31.425Z,66.12
2023-05-01T17:00:58.005Z,65.95
2023-05-01T17:03:24.601Z,66.23
2023-05-01T17:05:52.183Z,66.39
2023-05-01T17:08:18.631Z,66.26
2023-05-01T17:10:45.342Z,66.72
2023-05-01T17:13:11.768Z,66.68
2023-05-01T17:15:38.252Z,66.83
2023-05-01T17:18:04.698Z,67.51
2023-05-01T17:20:31.283Z,67.27
2023-05-01T17:22:57.729Z,67.27
2023-05-01T17:25:24.153Z,67.23
2023-05-01T17:27:50.565Z,66.80
2023-05-01T17:30:16.966Z,66.90
2023-05-01T17:32:43.535Z,67.37
2023-05-01T17:35:10.064Z,67.42
2023-05-01T17:37:36.802Z,67.56
2023-05-01T17:40:03.590Z,67.74
2023-05-01T17:42:30.978Z,67.88
2023-05-01T17:44:57.398Z,68.01
2023-05-01T17:47:26.098Z,67.78
2023-05-01T17:49:52.793Z,67.50
2023-05-01T17:52:19.206Z,67.01
2023-05-01T17:54:45.644Z,67.27
2023-05-01T17:57:12.062Z,67.66
2023-05-01T17:59:38.473Z,67.68
2023-05-01T18:02:05.847Z,67.17
2023-05-01T18:04:32.295Z,68.62
2023-05-01T18:06:58.830Z,69.44
2023-05-01T18:09:25.339Z,69.77
2023-05-01T18:11:52.118Z,70.11
2023-05-01T18:14:18.692Z,70.80
2023-05-01T18:16:45.212Z,71.26
2023-05-01T18:19:11.659Z,71.76
2023-05-01T18:21:38.470Z,72.10
2023-05-01T18:24:04.922Z,71.16
2023-05-01T18:26:31.347Z,72.13
2023-05-01T18:28:57.771Z,72.02
2023-05-01T18:31:24.218Z,68.14
2023-05-01T18:33:50.673Z,67.44
2023-05-01T18:36:17.079Z,66.48
2023-05-01T18:38:43.487Z,67.23
2023-05-01T18:41:09.938Z,65.58
2023-05-01T18:43:36.381Z,66.46
2023-05-01T18:46:03.371Z,67.01
2023-05-01T18:48:30.955Z,68.91
2023-05-01T18:51:07.781Z,68.94
2023-05-01T18:53:35.555Z,69.88
2023-05-01T18:56:02.773Z,69.99
2023-05-01T18:58:29.367Z,70.15
2023-05-01T19:00:55.788Z,69.66
2023-05-01T19:03:22.184Z,69.99
2023-05-01T19:05:48.660Z,68.92
2023-05-01T19:08:15.090Z,69.47
2023-05-01T19:10:41.549Z,70.21
2023-05-01T19:13:07.980Z,70.36
2023-05-01T19:15:34.431Z,69.90
2023-05-01T19:18:00.899Z,70.61
2023-05-01T19:20:27.320Z,70.57
2023-05-01T19:22:53.724Z,70.89
2023-05-01T19:25:20.154Z,70.43
2023-05-01T19:27:46.576Z,70.60
2023-05-01T19:30:13.107Z,70.23
2023-05-01T19:32:39.587Z,69.77
2023-05-01T19:35:06.006Z,69.45
2023-05-01T19:37:32.413Z,69.20
2023-05-01T19:39:58.987Z,68.41
2023-05-01T19:42:25.590Z,68.83
2023-05-01T19:44:52.017Z,69.91
2023-05-01T19:47:18.471Z,69.72
2023-05-01T19:49:44.893Z,69.43
2023-05-01T19:52:11.276Z,69.75
2023-05-01T19:54:37.765Z,69.66
2023-05-01T19:57:04.606Z,70.00
2023-05-01T19:59:32.158Z,69.97
2023-05-01T20:02:01.480Z,70.69
2023-05-01T20:04:28.398Z,70.34
2023-05-01T20:06:55.336Z,70.99
2023-05-01T20:09:21.752Z,71.18
2023-05-01T20:11:48.159Z,69.99
2023-05-01T20:14:14.750Z,70.71
2023-05-01T20:16:41.344Z,70.71
2023-05-01T20:19:09.082Z,69.62
2023-05-01T20:21:36.538Z,71.00
2023-05-01T20:24:02.992Z,68.10
2023-05-01T20:26:29.410Z,66.90
2023-05-01T20:28:55.853Z,64.19
2023-05-01T20:31:22.379Z,62.26
2023-05-01T20:33:48.909Z,63.19
2023-05-01T20:36:16.085Z,63.15
2023-05-01T20:38:43.712Z,61.32
2023-05-01T20:41:11.391Z,62.08
2023-05-01T20:43:39.001Z,63.09
2023-05-01T20:46:07.620Z,66.33
2023-05-01T20:48:34.083Z,68.22
2023-05-01T20:51:01.760Z,70.27
2023-05-01T20:53:30.307Z,72.13
2023-05-01T20:55:56.905Z,71.94
2023-05-01T20:58:23.705Z,71.72
2023-05-01T21:00:50.307Z,74.53
2023-05-01T21:03:16.787Z,78.55
2023-05-01T21:05:44.295Z,73.09
2023-05-01T21:08:11.116Z,76.46
2023-05-01T21:10:38.473Z,77.56
2023-05-01T21:13:05.030Z,77.32
2023-05-01T21:15:31.462Z,79.75
2023-05-01T21:17:57.914Z,79.88
2023-05-01T21:20:24.325Z,78.48
2023-05-01T21:22:51.382Z,79.25
2023-05-01T21:25:17.780Z,79.39
2023-05-01T21:27:44.552Z,79.14
2023-05-01T21:30:11.139Z,78.61
2023-05-01T21:32:37.758Z,75.92
2023-05-01T21:35:05.320Z,77.95
2023-05-01T21:37:32.905Z,78.99
2023-05-01T21:39:59.777Z,78.19
2023-05-01T21:42:27.106Z,79.06
2023-05-01T21:44:53.527Z,78.14
2023-05-01T21:47:19.986Z,77.35
2023-05-01T21:49:46.436Z,75.32
2023-05-01T21:52:13.450Z,75.48
2023-05-01T21:54:39.934Z,78.15
2023-05-01T21:57:06.379Z,76.16
2023-05-01T21:59:32.801Z,77.20
2023-05-01T22:01:59.848Z,75.94
2023-05-01T22:04:26.437Z,77.56
2023-05-01T22:06:53.066Z,78.43
2023-05-01T22:09:19.804Z,78.63
2023-05-01T22:11:46.729Z,78.50
2023-05-01T22:14:13.181Z,78.96
2023-05-01T22:16:39.728Z,79.24
2023-05-01T22:19:06.267Z,78.95
2023-05-01T22:21:32.762Z,79.41
2023-05-01T22:24:00.523Z,79.11
2023-05-01T22:26:26.949Z,78.92
2023-05-01T22:28:53.723Z,78.40
2023-05-01T22:31:20.764Z,78.54
2023-05-01T22:33:47.261Z,77.47
2023-05-01T22:36:15.921Z,79.49
2023-05-01T22:38:44.212Z,79.63
2023-05-01T22:41:10.946Z,78.66
2023-05-01T22:43:37.569Z,79.43
2023-05-01T22:46:04.184Z,78.68
2023-05-01T22:48:32.105Z,79.13
2023-05-01T22:50:59.399Z,78.74
2023-05-01T22:53:26.131Z,78.57
2023-05-01T22:55:52.571Z,78.19
2023-05-01T22:58:19.017Z,78.98
2023-05-01T23:00:47.367Z,77.51
2023-05-01T23:03:13.857Z,77.46
2023-05-01T23:05:41.629Z,77.17
2023-05-01T23:08:10.216Z,77.13
2023-05-01T23:10:36.738Z,78.17
2023-05-01T23:13:03.388Z,78.43
2023-05-01T23:15:32.044Z,77.44
2023-05-01T23:18:00.659Z,77.95
2023-05-01T23:20:27.121Z,77.63
2023-05-01T23:22:53.592Z,78.32
2023-05-01T23:25:20.391Z,79.10
2023-05-01T23:27:46.983Z,76.04
2023-05-01T23:30:13.583Z,76.93
2023-05-01T23:32:41.271Z,77.13
2023-05-01T23:35:08.740Z,75.47
2023-05-01T23:37:35.161Z,74.83
2023-05-01T23:40:02.281Z,75.84
2023-05-01T23:42:29.533Z,77.16
2023-05-01T23:44:58.377Z,76.48
2023-05-01T23:47:25.766Z,77.58
2023-05-01T23:49:53.304Z,77.26
2023-05-01T23:52:19.939Z,76.74
2023-05-01T23:54:47.526Z,78.27
2023-05-01T23:57:13.951Z,76.76
2023-05-01T23:59:40.381Z,78.06
